createdAt,value
2022-10-31T00:00:50.715Z,83.89
2022-10-31T00:03:19.417Z,84.09
2022-10-31T00:05:49.054Z,86.89
2022-10-31T00:08:17.620Z,85.47
2022-10-31T00:10:48.069Z,84.70
2022-10-31T00:13:16.516Z,84.48
2022-10-31T00:15:44.597Z,84.58
2022-10-31T00:18:13.044Z,84.67
2022-10-31T00:20:41.180Z,84.36
2022-10-31T00:23:09.571Z,84.10
2022-10-31T00:25:39.594Z,83.98
2022-10-31T00:28:11.647Z,83.29
2022-10-31T00:30:39.634Z,82.86
2022-10-31T00:33:07.573Z,82.23
2022-10-31T00:35:35.536Z,82.31
2022-10-31T00:38:03.492Z,83.58
2022-10-31T00:40:31.473Z,86.72
2022-10-31T00:42:59.651Z,85.38
2022-10-31T00:45:29.214Z,84.66
2022-10-31T00:47:57.516Z,84.13
2022-10-31T00:50:25.919Z,84.28
2022-10-31T00:52:53.859Z,84.61
2022-10-31T00:55:21.808Z,84.40
2022-10-31T00:57:49.982Z,84.54
2022-10-31T01:00:18.670Z,84.44
2022-10-31T01:02:48.131Z,84.91
2022-10-31T01:05:16.350Z,84.05
2022-10-31T01:07:44.578Z,84.36
2022-10-31T01:10:13.026Z,83.55
2022-10-31T01:12:42.312Z,82.78
2022-10-31T01:15:12.632Z,82.91
2022-10-31T01:17:40.684Z,82.99
2022-10-31T01:20:12.425Z,82.69
2022-10-31T01:22:40.398Z,83.16
2022-10-31T01:25:10.531Z,82.94
2022-10-31T01:27:38.478Z,83.57
2022-10-31T01:30:08.004Z,84.75
2022-10-31T01:32:36.094Z,83.25
2022-10-31T01:35:04.380Z,82.66
2022-10-31T01:37:34.310Z,82.17
2022-10-31T01:40:02.238Z,81.86
2022-10-31T01:42:30.154Z,81.33
2022-10-31T01:45:02.639Z,81.87
2022-10-31T01:47:39.988Z,82.97
2022-10-31T01:50:14.928Z,83.19
2022-10-31T01:52:46.891Z,82.14
2022-10-31T01:55:19.760Z,82.92
2022-10-31T01:57:50.717Z,83.82
2022-10-31T02:00:21.042Z,83.57
2022-10-31T02:02:51.527Z,83.41
2022-10-31T02:05:23.569Z,83.63
2022-10-31T02:07:59.586Z,84.04
2022-10-31T02:10:28.747Z,84.15
2022-10-31T02:13:00.717Z,84.25
2022-10-31T02:15:30.582Z,83.50
2022-10-31T02:17:59.351Z,84.02
2022-10-31T02:20:34.249Z,84.95
2022-10-31T02:23:39.639Z,87.80
2022-10-31T02:26:46.504Z,89.09
2022-10-31T02:29:38.102Z,90.14
2022-10-31T02:32:13.232Z,93.82
2022-10-31T02:34:49.303Z,94.01
2022-10-31T02:37:25.327Z,93.75
2022-10-31T02:40:02.308Z,91.50
2022-10-31T02:42:37.105Z,90.37
2022-10-31T02:45:11.563Z,89.93
2022-10-31T02:47:41.202Z,89.13
2022-10-31T02:50:13.131Z,91.48
2022-10-31T02:52:41.063Z,92.18
2022-10-31T02:55:14.160Z,91.01
2022-10-31T02:57:44.020Z,89.97
2022-10-31T03:00:12.859Z,89.56
2022-10-31T03:03:02.735Z,89.58
2022-10-31T03:05:53.104Z,88.04
2022-10-31T03:08:25.865Z,87.73
2022-10-31T03:10:58.136Z,87.01
2022-10-31T03:13:36.591Z,86.66
2022-10-31T03:16:11.527Z,86.45
2022-10-31T03:18:45.167Z,89.18
2022-10-31T03:21:15.724Z,88.14
2022-10-31T03:23:47.423Z,86.24
2022-10-31T03:26:17.808Z,86.68
2022-10-31T03:28:49.479Z,89.82
2022-10-31T03:31:20.933Z,88.03
2022-10-31T03:33:53.301Z,88.14
2022-10-31T03:36:23.135Z,86.30
2022-10-31T03:38:52.105Z,85.72
2022-10-31T03:41:24.846Z,85.32
2022-10-31T03:44:00.185Z,85.21
2022-10-31T03:46:29.114Z,84.70
2022-10-31T03:48:59.423Z,88.74
2022-10-31T03:51:33.124Z,87.93
2022-10-31T03:54:06.405Z,87.27
2022-10-31T03:56:38.524Z,87.61
2022-10-31T03:59:09.921Z,86.88
2022-10-31T04:01:47.465Z,86.00
2022-10-31T04:04:17.320Z,85.27
2022-10-31T04:06:47.545Z,85.37
2022-10-31T04:09:16.990Z,85.85
2022-10-31T04:11:48.177Z,86.35
2022-10-31T04:14:16.281Z,86.65
2022-10-31T04:16:46.048Z,90.34
2022-10-31T04:19:14.730Z,87.27
2022-10-31T04:21:44.435Z,86.66
2022-10-31T04:24:12.784Z,87.59
2022-10-31T04:26:40.736Z,88.10
2022-10-31T04:29:08.733Z,87.84
2022-10-31T04:31:36.691Z,88.20
2022-10-31T04:34:04.656Z,87.70
2022-10-31T04:36:32.790Z,87.25
2022-10-31T04:39:02.150Z,89.69
2022-10-31T04:41:30.228Z,94.59
2022-10-31T04:43:58.240Z,95.97
2022-10-31T04:46:26.229Z,94.52
2022-10-31T04:48:54.157Z,94.44
2022-10-31T04:51:22.089Z,92.89
2022-10-31T04:53:50.066Z,94.97
2022-10-31T04:56:19.351Z,93.61
2022-10-31T04:58:47.297Z,91.45
2022-10-31T05:01:15.773Z,91.43
2022-10-31T05:03:43.816Z,91.26
2022-10-31T05:06:11.763Z,90.42
2022-10-31T05:08:39.719Z,91.09
2022-10-31T05:11:07.638Z,91.25
2022-10-31T05:13:36.921Z,90.98
2022-10-31T05:16:04.962Z,91.26
2022-10-31T05:18:33.001Z,91.05
2022-10-31T05:21:00.949Z,91.34
2022-10-31T05:23:28.951Z,91.61
2022-10-31T05:25:56.975Z,91.21
2022-10-31T05:28:25.304Z,91.69
2022-10-31T05:30:54.633Z,92.18
2022-10-31T05:33:22.599Z,91.91
2022-10-31T05:35:50.555Z,92.55
2022-10-31T05:38:18.464Z,92.75
2022-10-31T05:40:46.403Z,94.89
2022-10-31T05:43:15.244Z,98.36
2022-10-31T05:45:43.164Z,98.47
2022-10-31T05:48:12.465Z,97.83
2022-10-31T05:50:40.409Z,96.75
2022-10-31T05:53:08.324Z,95.62
2022-10-31T05:55:36.652Z,95.93
2022-10-31T05:58:04.765Z,94.03
2022-10-31T06:00:34.070Z,93.76
2022-10-31T06:03:03.258Z,92.41
2022-10-31T06:05:32.939Z,92.35
2022-10-31T06:08:01.564Z,91.77
2022-10-31T06:10:30.324Z,91.54
2022-10-31T06:12:59.375Z,91.70
2022-10-31T06:15:27.322Z,90.32
2022-10-31T06:18:03.451Z,89.85
2022-10-31T06:20:33.663Z,89.74
2022-10-31T06:23:01.892Z,88.37
2022-10-31T06:25:30.550Z,86.70
2022-10-31T06:27:58.592Z,86.55
2022-10-31T06:30:26.766Z,84.72
2022-10-31T06:32:54.836Z,83.71
2022-10-31T06:35:23.120Z,83.29
2022-10-31T06:37:56.525Z,81.55
2022-10-31T06:40:24.764Z,82.48
2022-10-31T06:42:58.784Z,82.22
2022-10-31T06:45:26.548Z,85.07
2022-10-31T06:48:15.928Z,87.02
2022-10-31T06:50:42.561Z,85.35
2022-10-31T06:53:12.037Z,84.95
2022-10-31T06:55:40.288Z,84.55
2022-10-31T06:58:08.737Z,84.56
2022-10-31T07:00:37.026Z,82.70
2022-10-31T07:03:07.491Z,80.76
2022-10-31T07:05:35.959Z,77.96
2022-10-31T07:08:07.733Z,78.18
2022-10-31T07:10:40.615Z,76.52
2022-10-31T07:13:12.645Z,76.22
2022-10-31T07:15:42.898Z,75.10
2022-10-31T07:18:12.485Z,74.33
2022-10-31T07:20:40.489Z,74.23
2022-10-31T07:23:08.911Z,73.82
2022-10-31T07:25:38.342Z,73.47
2022-10-31T07:28:06.602Z,72.25
2022-10-31T07:30:34.560Z,71.46
2022-10-31T07:33:02.875Z,69.74
2022-10-31T07:35:31.827Z,70.74
2022-10-31T07:38:08.309Z,68.21
2022-10-31T07:40:36.273Z,67.26
2022-10-31T07:43:10.020Z,65.07
2022-10-31T07:45:41.137Z,64.26
2022-10-31T07:48:09.088Z,64.04
2022-10-31T07:50:37.209Z,63.52
2022-10-31T07:53:08.036Z,62.48
2022-10-31T07:55:36.877Z,62.59
2022-10-31T07:58:08.457Z,61.90
2022-10-31T08:00:38.012Z,60.84
2022-10-31T08:03:07.766Z,60.26
2022-10-31T08:05:36.848Z,60.14
2022-10-31T08:08:06.219Z,59.11
2022-10-31T08:10:35.404Z,58.88
2022-10-31T08:13:05.353Z,58.80
2022-10-31T08:15:39.136Z,58.37
2022-10-31T08:18:07.260Z,57.11
2022-10-31T08:20:35.493Z,57.84
2022-10-31T08:23:05.280Z,56.91
2022-10-31T08:25:38.415Z,57.71
2022-10-31T08:28:07.460Z,56.16
2022-10-31T08:30:38.663Z,56.40
2022-10-31T08:33:08.605Z,55.98
2022-10-31T08:35:36.742Z,56.37
2022-10-31T08:38:05.538Z,56.40
2022-10-31T08:40:36.199Z,55.38
2022-10-31T08:43:05.858Z,54.29
2022-10-31T08:45:36.435Z,55.36
2022-10-31T08:48:06.832Z,55.22
2022-10-31T08:50:37.064Z,55.19
2022-10-31T08:53:06.534Z,54.95
2022-10-31T08:55:36.786Z,55.66
2022-10-31T08:58:06.105Z,55.61
2022-10-31T09:00:34.728Z,54.74
2022-10-31T09:03:06.507Z,53.16
2022-10-31T09:05:35.755Z,53.58
2022-10-31T09:08:06.007Z,53.33
2022-10-31T09:10:36.038Z,53.28
2022-10-31T09:13:07.419Z,54.50
2022-10-31T09:15:37.045Z,52.57
2022-10-31T09:18:06.794Z,53.22
2022-10-31T09:20:36.830Z,53.96
2022-10-31T09:23:07.528Z,52.89
2022-10-31T09:25:36.831Z,52.04
2022-10-31T09:28:06.671Z,51.32
2022-10-31T09:30:36.884Z,51.09
2022-10-31T09:33:07.956Z,52.51
2022-10-31T09:35:36.632Z,52.25
2022-10-31T09:38:06.340Z,53.11
2022-10-31T09:40:37.435Z,54.17
2022-10-31T09:43:16.556Z,51.34
2022-10-31T09:45:53.249Z,52.43
2022-10-31T09:48:47.093Z,53.44
2022-10-31T09:51:19.156Z,51.96
2022-10-31T09:53:51.504Z,50.43
2022-10-31T09:56:23.001Z,51.10
2022-10-31T09:58:56.415Z,49.93
2022-10-31T10:01:35.318Z,50.84
2022-10-31T10:04:20.682Z,50.78
2022-10-31T10:06:51.949Z,50.43
2022-10-31T10:12:04.670Z,53.09
2022-10-31T10:14:47.788Z,49.58
2022-10-31T10:17:28.370Z,50.26
2022-10-31T10:20:29.124Z,50.91
2022-10-31T10:23:06.202Z,50.32
2022-10-31T10:25:40.735Z,50.06
2022-10-31T10:28:23.925Z,50.70
2022-10-31T10:30:58.942Z,50.20
2022-10-31T10:33:34.060Z,49.35
2022-10-31T10:36:07.984Z,48.88
2022-10-31T10:38:41.731Z,50.16
2022-10-31T10:41:18.648Z,48.32
2022-10-31T10:46:39.359Z,47.93
2022-10-31T10:49:17.820Z,48.87
2022-10-31T10:52:13.225Z,49.08
2022-10-31T10:55:00.353Z,49.23
2022-10-31T10:57:40.629Z,48.92
2022-10-31T11:00:20.370Z,48.72
2022-10-31T11:02:49.179Z,49.16
2022-10-31T11:05:25.834Z,48.56
2022-10-31T11:07:55.430Z,48.86
2022-10-31T11:10:23.703Z,49.07
2022-10-31T11:13:06.079Z,47.38
2022-10-31T11:15:39.023Z,48.38
2022-10-31T11:18:07.709Z,47.89
2022-10-31T11:20:37.698Z,46.95
2022-10-31T11:23:22.535Z,46.29
2022-10-31T11:25:52.801Z,47.14
2022-10-31T11:28:20.926Z,46.64
2022-10-31T11:30:51.272Z,46.28
2022-10-31T11:33:24.122Z,45.75
2022-10-31T11:35:55.253Z,45.92
2022-10-31T11:38:35.764Z,45.68
2022-10-31T11:41:13.136Z,46.38
2022-10-31T11:43:47.653Z,47.01
2022-10-31T11:46:23.284Z,46.33
2022-10-31T11:48:54.742Z,45.73
2022-10-31T11:51:24.513Z,46.04
2022-10-31T11:53:59.924Z,48.42
2022-10-31T11:56:40.390Z,48.29
2022-10-31T11:59:19.443Z,47.58
2022-10-31T12:01:50.917Z,46.52
2022-10-31T12:04:19.722Z,46.45
2022-10-31T12:06:50.123Z,46.38
2022-10-31T12:09:25.299Z,47.21
2022-10-31T12:12:13.723Z,45.46
2022-10-31T12:14:53.083Z,46.10
2022-10-31T12:17:25.803Z,48.19
2022-10-31T12:20:05.320Z,47.10
2022-10-31T12:22:44.034Z,46.13
2022-10-31T12:25:30.644Z,46.50
2022-10-31T12:28:07.467Z,46.51
2022-10-31T12:30:49.560Z,48.43
2022-10-31T12:33:30.445Z,49.50
2022-10-31T12:36:15.332Z,47.58
2022-10-31T12:39:00.283Z,47.21
2022-10-31T12:41:44.119Z,47.32
2022-10-31T12:44:25.002Z,46.42
2022-10-31T12:47:08.197Z,46.86
2022-10-31T12:49:46.183Z,48.72
2022-10-31T12:52:32.528Z,48.28
2022-10-31T12:55:16.548Z,48.87
2022-10-31T12:57:47.370Z,50.94
2022-10-31T13:00:18.103Z,49.43
2022-10-31T13:02:54.258Z,50.24
2022-10-31T13:05:31.373Z,50.33
2022-10-31T13:08:03.756Z,50.83
2022-10-31T13:10:36.923Z,50.45
2022-10-31T13:13:13.112Z,48.38
2022-10-31T13:15:50.189Z,50.65
2022-10-31T13:18:28.953Z,50.39
2022-10-31T13:20:59.381Z,51.23
2022-10-31T13:26:26.398Z,52.14
2022-10-31T13:29:04.366Z,51.67
2022-10-31T13:31:32.475Z,51.80
2022-10-31T13:34:06.216Z,52.30
2022-10-31T13:36:38.585Z,51.23
2022-10-31T13:39:20.840Z,51.85
2022-10-31T13:41:55.945Z,52.28
2022-10-31T13:44:27.044Z,52.54
2022-10-31T13:46:56.955Z,53.70
2022-10-31T13:49:39.547Z,53.89
2022-10-31T13:52:15.763Z,53.76
2022-10-31T13:54:45.855Z,54.61
2022-10-31T13:57:21.748Z,55.05
2022-10-31T13:59:53.841Z,55.52
2022-10-31T14:02:28.888Z,55.40
2022-10-31T14:05:00.442Z,56.26
2022-10-31T14:07:30.974Z,56.33
2022-10-31T14:10:03.455Z,55.81
2022-10-31T14:12:35.974Z,56.60
2022-10-31T14:15:15.941Z,56.26
2022-10-31T14:17:50.028Z,56.43
2022-10-31T14:20:34.916Z,56.56
2022-10-31T14:23:27.921Z,56.42
2022-10-31T14:25:56.116Z,56.63
2022-10-31T14:28:33.780Z,57.85
2022-10-31T14:31:04.154Z,59.24
2022-10-31T14:33:33.254Z,60.04
2022-10-31T14:36:06.452Z,60.09
2022-10-31T14:38:49.810Z,60.44
2022-10-31T14:41:51.516Z,59.76
2022-10-31T14:44:54.762Z,60.05
2022-10-31T14:47:36.434Z,60.64
2022-10-31T14:50:23.916Z,60.10
2022-10-31T14:52:55.975Z,58.54
2022-10-31T14:55:26.291Z,57.59
2022-10-31T14:57:57.980Z,59.21
2022-10-31T15:00:26.896Z,59.14
2022-10-31T15:03:07.765Z,58.81
2022-10-31T15:05:43.520Z,58.87
2022-10-31T15:08:16.792Z,59.12
2022-10-31T15:10:47.922Z,59.71
2022-10-31T15:13:21.172Z,58.86
2022-10-31T15:15:52.485Z,58.82
2022-10-31T15:18:25.220Z,59.29
2022-10-31T15:20:54.574Z,59.37
2022-10-31T15:23:26.019Z,57.80
2022-10-31T15:26:01.310Z,57.25
2022-10-31T15:28:29.888Z,57.71
2022-10-31T15:30:59.793Z,58.12
2022-10-31T15:33:37.535Z,59.00
2022-10-31T15:36:07.757Z,58.81
2022-10-31T15:38:41.480Z,59.17
2022-10-31T15:41:35.831Z,60.13
2022-10-31T15:44:09.363Z,60.84
2022-10-31T15:46:37.372Z,61.49
2022-10-31T15:49:13.344Z,62.29
2022-10-31T15:51:41.580Z,60.91
2022-10-31T15:54:15.427Z,59.90
2022-10-31T15:56:45.562Z,59.71
2022-10-31T15:59:21.993Z,60.37
2022-10-31T16:02:03.139Z,61.18
2022-10-31T16:04:32.792Z,60.49
2022-10-31T16:07:05.696Z,61.32
2022-10-31T16:09:33.828Z,60.82
2022-10-31T16:12:01.780Z,61.40
2022-10-31T16:14:33.298Z,63.29
2022-10-31T16:17:03.593Z,63.28
2022-10-31T16:19:36.096Z,63.39
2022-10-31T16:22:08.997Z,62.67
2022-10-31T16:24:52.905Z,63.07
2022-10-31T16:27:26.591Z,64.24
2022-10-31T16:29:54.925Z,64.36
2022-10-31T16:32:31.934Z,64.39
2022-10-31T16:35:02.891Z,64.94
2022-10-31T16:37:30.968Z,63.81
2022-10-31T16:39:58.892Z,64.21
2022-10-31T16:42:26.953Z,64.23
2022-10-31T16:44:54.898Z,65.12
2022-10-31T16:47:26.001Z,65.09
2022-10-31T16:50:01.180Z,64.67
2022-10-31T16:52:38.129Z,65.46
2022-10-31T16:55:14.163Z,65.37
2022-10-31T16:57:45.741Z,66.00
2022-10-31T17:00:18.990Z,65.11
2022-10-31T17:02:49.939Z,65.90
2022-10-31T17:05:19.306Z,66.61
2022-10-31T17:07:49.433Z,66.81
2022-10-31T17:10:18.728Z,67.13
2022-10-31T17:12:49.959Z,67.26
2022-10-31T17:15:21.333Z,67.77
2022-10-31T17:17:49.264Z,67.13
2022-10-31T17:20:23.047Z,66.77
2022-10-31T17:22:52.608Z,67.56
2022-10-31T17:25:22.797Z,67.24
2022-10-31T17:27:50.800Z,66.71
2022-10-31T17:30:19.960Z,66.81
2022-10-31T17:32:49.276Z,67.26
2022-10-31T17:35:18.655Z,68.81
2022-10-31T17:37:47.820Z,70.13
2022-10-31T17:40:18.968Z,69.88
2022-10-31T17:42:51.152Z,69.63
2022-10-31T17:45:19.790Z,69.27
2022-10-31T17:47:49.619Z,68.17
2022-10-31T17:50:18.114Z,68.77
2022-10-31T17:52:46.133Z,69.05
2022-10-31T17:55:14.638Z,69.43
2022-10-31T17:57:45.030Z,69.94
2022-10-31T18:00:15.408Z,70.02
2022-10-31T18:02:43.856Z,70.03
2022-10-31T18:05:12.492Z,69.83
2022-10-31T18:07:40.442Z,69.83
2022-10-31T18:10:09.619Z,70.16
2022-10-31T18:12:38.150Z,69.98
2022-10-31T18:15:08.438Z,70.15
2022-10-31T18:17:39.442Z,71.00
2022-10-31T18:20:11.564Z,71.00
2022-10-31T18:22:39.803Z,71.75
2022-10-31T18:25:09.606Z,71.93
2022-10-31T18:27:37.833Z,71.96
2022-10-31T18:30:08.789Z,71.68
2022-10-31T18:32:36.767Z,71.63
2022-10-31T18:35:05.240Z,71.53
2022-10-31T18:37:33.172Z,71.70
2022-10-31T18:40:01.245Z,72.28
2022-10-31T18:42:29.433Z,72.46
2022-10-31T18:45:00.242Z,72.70
2022-10-31T18:47:36.318Z,72.83
2022-10-31T18:50:04.326Z,73.06
2022-10-31T18:52:33.072Z,74.07
2022-10-31T18:55:00.999Z,74.35
2022-10-31T18:57:29.958Z,74.20
2022-10-31T18:59:57.890Z,74.35
2022-10-31T19:02:25.863Z,75.28
2022-10-31T19:04:55.193Z,75.00
2022-10-31T19:07:23.119Z,76.26
2022-10-31T19:09:51.104Z,76.05
2022-10-31T19:12:19.021Z,76.53
2022-10-31T19:14:46.959Z,76.76
2022-10-31T19:17:14.887Z,76.66
2022-10-31T19:19:42.885Z,76.25
2022-10-31T19:22:12.192Z,75.84
2022-10-31T19:24:40.091Z,75.80
2022-10-31T19:27:10.448Z,75.71
2022-10-31T19:29:38.370Z,75.36
2022-10-31T19:32:06.883Z,75.19
2022-10-31T19:34:35.146Z,75.81
2022-10-31T19:37:03.129Z,76.28
2022-10-31T19:39:32.468Z,76.72
2022-10-31T19:42:00.412Z,77.44
2022-10-31T19:44:30.168Z,77.67
2022-10-31T19:46:58.391Z,77.20
2022-10-31T19:49:27.632Z,76.61
2022-10-31T19:51:55.628Z,76.39
2022-10-31T19:54:23.937Z,76.17
2022-10-31T19:56:53.330Z,75.85
2022-10-31T19:59:21.260Z,75.75
2022-10-31T20:01:49.328Z,76.03
2022-10-31T20:04:17.396Z,76.04
2022-10-31T20:06:45.772Z,76.30
2022-10-31T20:09:15.258Z,76.34
2022-10-31T20:11:45.190Z,76.81
2022-10-31T20:14:17.228Z,76.54
2022-10-31T20:16:46.037Z,76.64
2022-10-31T20:19:14.046Z,76.93
2022-10-31T20:21:42.883Z,77.83
2022-10-31T20:24:12.123Z,77.20
2022-10-31T20:26:42.333Z,76.55
2022-10-31T20:29:16.232Z,76.18
2022-10-31T20:31:45.535Z,75.93
2022-10-31T20:34:14.299Z,76.01
2022-10-31T20:36:42.265Z,76.33
2022-10-31T20:39:11.029Z,75.54
2022-10-31T20:41:39.874Z,75.58
2022-10-31T20:44:08.113Z,74.97
2022-10-31T20:46:37.504Z,75.86
2022-10-31T20:49:05.428Z,76.30
2022-10-31T20:51:33.431Z,76.28
2022-10-31T20:54:01.980Z,77.28
2022-10-31T20:56:30.543Z,78.29
2022-10-31T20:58:58.925Z,78.46
2022-10-31T21:01:29.066Z,78.57
2022-10-31T21:03:59.644Z,80.18
2022-10-31T21:06:28.283Z,80.04
2022-10-31T21:08:57.420Z,80.45
2022-10-31T21:11:26.823Z,80.22
2022-10-31T21:13:55.208Z,80.53
2022-10-31T21:16:24.680Z,80.74
2022-10-31T21:18:54.016Z,78.55
2022-10-31T21:21:29.023Z,78.19
2022-10-31T21:24:01.976Z,77.82
2022-10-31T21:26:33.501Z,78.67
2022-10-31T21:29:01.945Z,78.20
2022-10-31T21:31:30.176Z,78.14
2022-10-31T21:33:58.460Z,77.66
2022-10-31T21:36:27.937Z,77.95
2022-10-31T21:38:56.904Z,78.47
2022-10-31T21:41:26.488Z,78.01
2022-10-31T21:43:55.410Z,78.32
2022-10-31T21:46:25.052Z,78.11
2022-10-31T21:48:54.078Z,77.49
2022-10-31T21:51:24.176Z,77.57
2022-10-31T21:54:11.109Z,77.58
2022-10-31T21:56:39.655Z,77.64
2022-10-31T21:59:07.913Z,77.85
2022-10-31T22:01:37.026Z,78.79
2022-10-31T22:04:05.744Z,78.98
2022-10-31T22:06:34.035Z,78.10
2022-10-31T22:09:07.415Z,78.14
2022-10-31T22:11:36.275Z,78.36
2022-10-31T22:14:05.159Z,78.61
2022-10-31T22:16:36.435Z,78.55
2022-10-31T22:19:06.540Z,78.30
2022-10-31T22:21:38.738Z,77.84
2022-10-31T22:24:09.261Z,77.63
2022-10-31T22:26:38.035Z,77.49
2022-10-31T22:29:11.007Z,77.98
2022-10-31T22:31:40.911Z,78.91
2022-10-31T22:34:09.314Z,79.65
2022-10-31T22:36:37.853Z,80.25
2022-10-31T22:39:08.039Z,81.92
2022-10-31T22:41:37.304Z,82.17
2022-10-31T22:44:06.355Z,82.37
2022-10-31T22:46:36.050Z,81.91
2022-10-31T22:49:06.228Z,81.45
2022-10-31T22:51:36.202Z,80.68
2022-10-31T22:54:04.978Z,80.67
2022-10-31T22:56:35.680Z,81.45
2022-10-31T22:59:04.250Z,81.13
2022-10-31T23:01:34.803Z,80.74
2022-10-31T23:04:03.316Z,79.22
2022-10-31T23:06:33.557Z,79.08
2022-10-31T23:09:03.487Z,79.11
2022-10-31T23:11:35.713Z,78.48
2022-10-31T23:14:16.256Z,78.13
2022-10-31T23:16:47.574Z,79.08
2022-10-31T23:19:18.634Z,79.63
2022-10-31T23:22:00.313Z,79.92
2022-10-31T23:24:31.766Z,79.11
2022-10-31T23:27:10.833Z,79.51
2022-10-31T23:29:43.354Z,80.26
2022-10-31T23:32:14.888Z,79.97
2022-10-31T23:34:43.479Z,80.49
2022-10-31T23:37:11.961Z,80.39
2022-10-31T23:39:40.030Z,80.11
2022-10-31T23:42:10.697Z,79.89
2022-10-31T23:44:39.007Z,80.42
2022-10-31T23:47:07.440Z,81.85
2022-10-31T23:49:35.729Z,82.12
2022-10-31T23:52:04.975Z,82.04
2022-10-31T23:54:33.809Z,81.47
2022-10-31T23:57:02.080Z,82.43
2022-10-31T23:59:31.945Z,82.08
